Data for 02/24/2013

Time Sea-Level Adjusted Pressure Absolute Pressure Temperature Relative Humidity Dew Point   
(mb) (inHg) (mb) (inHg) (C) (F) (%) (C) (F)
00:05 1017 30.03 846 24.98 -5.4 22.3 87 -7.2 19
00:10 1017 30.03 846 24.98 -5.5 22.2 89 -7.1 19.3
00:15 1017 30.03 846 24.98 -5.5 22.1 90 -6.8 19.7
00:20 1017 30.03 846 24.98 -5.3 22.4 91 -6.6 20.1
00:25 1017 30.03 846 24.98 -5.3 22.5 91 -6.6 20.2
00:30 1017 30.03 846 24.98 -5.3 22.5 91 -6.5 20.3
00:35 1017 30.03 847 25.01 -5.4 22.4 92 -6.5 20.3
00:40 1017 30.03 847 25.01 -5.3 22.4 92 -6.4 20.4
00:45 1017 30.03 847 25.01 -5.4 22.2 92 -6.5 20.3
00:50 1017 30.03 847 25.01 -5.6 21.9 93 -6.6 20.1
00:55 1017 30.03 847 25.01 -5.6 21.9 93 -6.6 20.1
01:00 1018 30.06 847 25.01 -5.6 22 93 -6.6 20.2
01:05 1018 30.06 847 25.01 -5.5 22 92 -6.6 20.2
01:10 1018 30.06 847 25.01 -5.5 22.1 92 -6.6 20.2
01:15 1018 30.06 847 25.01 -5.5 22.1 92 -6.6 20.2
01:20 1018 30.06 847 25.01 -5.6 22 92 -6.7 20
01:25 1018 30.06 847 25.01 -5.6 21.8 92 -6.7 20
01:30 1018 30.06 847 25.01 -5.6 21.9 92 -6.7 20
01:35 1018 30.06 847 25.01 -5.6 21.9 92 -6.7 20
01:40 1018 30.06 847 25.01 -5.6 22 92 -6.7 20
01:45 1018 30.06 847 25.01 -5.5 22.1 92 -6.7 20
01:50 1018 30.06 847 25.01 -5.5 22.2 92 -6.6 20.1
01:55 1018 30.06 847 25.01 -5.5 22.1 91 -6.7 20
02:00 1018 30.06 847 25.01 -5.5 22.1 91 -6.7 19.9
02:05 1018 30.06 847 25.01 -5.4 22.3 91 -6.7 19.9
02:10 1018 30.06 847 25.01 -5.4 22.3 91 -6.6 20.1
02:15 1018 30.06 847 25.01 -5.5 22.1 92 -6.6 20
02:20 1018 30.06 848 25.04 -5.5 22.1 92 -6.7 20
02:25 1018 30.06 848 25.04 -5.5 22.1 92 -6.6 20.1
02:30 1018 30.06 848 25.04 -5.5 22.1 92 -6.6 20.1
02:35 1018 30.06 848 25.04 -5.4 22.2 91 -6.6 20.1
02:40 1018 30.06 848 25.04 -5.5 22.1 91 -6.7 19.9
02:45 1018 30.06 848 25.04 -5.5 22.1 91 -6.8 19.8
02:50 1018 30.06 848 25.04 -5.5 22.1 90 -6.9 19.6
02:55 1018 30.06 848 25.04 -5.5 22.1 90 -7 19.5
03:00 1018 30.06 848 25.04 -5.6 22 89 -7.1 19.3
03:05 1018 30.06 848 25.04 -5.6 21.9 89 -7.2 19.1
03:10 1019 30.09 848 25.04 -5.7 21.8 89 -7.3 18.9
03:15 1019 30.09 848 25.04 -5.9 21.4 89 -7.4 18.6
03:20 1019 30.09 848 25.04 -6.3 20.7 90 -7.7 18.1
03:25 1019 30.09 848 25.04 -6.3 20.6 89 -7.9 17.8
03:30 1019 30.09 848 25.04 -6.6 20.1 89 -8.1 17.3
03:35 1019 30.09 848 25.04 -6.7 19.9 89 -8.3 17.1
03:40 1019 30.09 848 25.04 -6.7 19.9 88 -8.4 17
03:45 1019 30.09 848 25.04 -6.8 19.8 88 -8.5 16.7
03:50 1019 30.09 848 25.04 -6.8 19.8 87 -8.6 16.5
03:55 1019 30.09 848 25.04 -6.5 20.2 86 -8.6 16.5
04:00 1019 30.09 848 25.04 -6.4 20.6 84 -8.7 16.4
04:05 1019 30.09 848 25.04 -6.3 20.7 83 -8.8 16.2
04:10 1019 30.09 848 25.04 -6.3 20.7 82 -8.8 16.2
04:15 1019 30.09 848 25.04 -6.3 20.6 81 -9 15.8
04:20 1019 30.09 848 25.04 -6.6 20.1 83 -9.1 15.6
04:25 1019 30.09 848 25.04 -6.9 19.5 83 -9.3 15.3
04:30 1019 30.09 848 25.04 -6.7 19.9 81 -9.4 15.1
04:35 1019 30.09 848 25.04 -6.4 20.5 80 -9.3 15.3
04:40 1019 30.09 848 25.04 -6.1 21.1 78 -9.4 15.1
04:45 1019 30.09 848 25.04 -5.8 21.5 75 -9.5 14.9
04:50 1019 30.09 848 25.04 -5.7 21.8 75 -9.5 15
04:55 1019 30.09 848 25.04 -5.7 21.7 75 -9.5 14.9
05:00 1019 30.09 848 25.04 -5.7 21.8 74 -9.6 14.7
05:05 1019 30.09 848 25.04 -5.6 21.9 74 -9.6 14.8
05:10 1019 30.09 848 25.04 -5.7 21.8 73 -9.7 14.5
05:15 1019 30.09 848 25.04 -5.7 21.8 73 -9.8 14.4
05:20 1019 30.09 848 25.04 -5.7 21.8 72 -9.9 14.2
05:25 1019 30.09 848 25.04 -5.7 21.8 73 -9.8 14.4
05:30 1019 30.09 849 25.07 -5.8 21.6 72 -10 14
05:35 1019 30.09 849 25.07 -5.9 21.4 72 -10.1 13.9
05:40 1020 30.12 849 25.07 -6.3 20.6 74 -10.2 13.6
05:45 1020 30.12 849 25.07 -7.3 18.8 76 -10.9 12.4
05:50 1020 30.12 849 25.07 -7.7 18.2 77 -11 12.2
05:55 1020 30.12 849 25.07 -8.1 17.5 79 -11.2 11.9
06:00 1020 30.12 849 25.07 -8 17.7 78 -11.2 11.9
06:05 1020 30.12 849 25.07 -7.8 18 77 -11.1 12
06:10 1020 30.12 849 25.07 -7.3 18.9 74 -11.1 12
06:15 1020 30.12 849 25.07 -6.9 19.5 74 -10.9 12.4
06:20 1020 30.12 849 25.07 -6.8 19.8 72 -11 12.3
06:25 1020 30.12 850 25.1 -6.7 19.9 73 -10.9 12.5
06:30 1020 30.12 850 25.1 -6.7 19.9 73 -10.9 12.4
06:35 1020 30.12 850 25.1 -6.6 20.1 73 -10.7 12.7
06:40 1020 30.12 850 25.1 -6.4 20.4 72 -10.7 12.7
06:45 1021 30.15 850 25.1 -6.3 20.7 71 -10.7 12.8
06:50 1021 30.15 850 25.1 -6.3 20.7 70 -10.8 12.5
06:55 1021 30.15 850 25.1 -6.2 20.8 71 -10.7 12.7
07:00 1021 30.15 850 25.1 -6.3 20.7 71 -10.8 12.6
07:05 1021 30.15 850 25.1 -6.3 20.6 71 -10.8 12.5
07:10 1021 30.15 850 25.1 -6.3 20.6 70 -10.9 12.4
07:15 1021 30.15 850 25.1 -6.3 20.7 70 -10.9 12.5
07:20 1021 30.15 850 25.1 -6.3 20.6 70 -10.9 12.3
07:25 1021 30.15 850 25.1 -6.4 20.5 70 -11 12.2
07:30 1021 30.15 850 25.1 -6.5 20.2 71 -11 12.2
07:35 1021 30.15 850 25.1 -6.9 19.6 71 -11.2 11.8
07:40 1021 30.15 850 25.1 -7.1 19.2 72 -11.4 11.5
07:45 1021 30.15 850 25.1 -6.9 19.6 71 -11.3 11.6
07:50 1021 30.15 850 25.1 -6.7 19.9 71 -11.2 11.8
07:55 1021 30.15 850 25.1 -6.6 20.1 71 -11.1 12
08:00 1021 30.15 850 25.1 -6.6 20.1 71 -11.1 12.1
08:05 1021 30.15 850 25.1 -6.6 20 70 -11.2 11.9
08:10 1021 30.15 850 25.1 -6.5 20.2 69 -11.3 11.7
08:15 1021 30.15 850 25.1 -6.6 20.2 70 -11.1 12
08:20 1021 30.15 850 25.1 -6.5 20.3 71 -11 12.3
08:25 1021 30.15 850 25.1 -6.6 20.1 71 -11 12.2
08:30 1021 30.15 850 25.1 -7 19.4 73 -11 12.2
08:35 1021 30.15 850 25.1 -7 19.5 75 -10.6 12.8
08:40 1021 30.15 850 25.1 -6.8 19.7 73 -10.9 12.4
08:45 1021 30.15 850 25.1 -6.8 19.7 72 -11 12.2
08:50 1021 30.15 850 25.1 -6.8 19.7 69 -11.5 11.2
08:55 1021 30.15 850 25.1 -7 19.4 71 -11.5 11.3
09:00 1021 30.15 850 25.1 -6.8 19.7 68 -11.7 10.9
09:05 1021 30.15 850 25.1 -7 19.5 66 -12.3 9.9
09:10 1021 30.15 850 25.1 -7.6 18.4 67 -12.8 9
09:15 1021 30.15 850 25.1 -7.8 18 65 -13.3 8
09:20 1021 30.15 850 25.1 -8 17.6 64 -13.6 7.5
09:25 1021 30.15 850 25.1 -7.8 18 65 -13.3 8
09:30 1021 30.15 850 25.1 -7.6 18.3 66 -12.8 8.9
09:35 1021 30.15 851 25.13 -7.5 18.4 64 -13.1 8.3
09:40 1021 30.15 851 25.13 -7.1 19.2 63 -13 8.6
09:45 1021 30.15 851 25.13 -7.2 19.1 63 -13.1 8.5
09:50 1021 30.15 851 25.13 -7 19.5 62 -13.1 8.4
09:55 1021 30.15 851 25.13 -6.9 19.6 61 -13.2 8.3
10:00 1021 30.15 851 25.13 -6.5 20.3 60 -13.2 8.3
10:05 1021 30.15 851 25.13 -6.3 20.6 59 -13 8.6
10:10 1022 30.18 851 25.13 -6.2 20.9 59 -13 8.7
10:15 1022 30.18 851 25.13 -5.7 21.7 57 -13 8.6
10:20 1022 30.18 851 25.13 -5.5 22.1 57 -12.8 8.9
10:25 1022 30.18 851 25.13 -5.6 21.9 57 -12.8 8.9
10:30 1022 30.18 851 25.13 -5.5 22 56 -13 8.7
10:35 1022 30.18 851 25.13 -5.3 22.5 55 -12.9 8.8
10:40 1022 30.18 851 25.13 -5.2 22.6 56 -12.8 9
10:45 1022 30.18 851 25.13 -5.1 22.9 55 -12.7 9.2
10:50 1022 30.18 851 25.13 -5 22.9 56 -12.6 9.4
10:55 1022 30.18 851 25.13 -4.9 23.1 55 -12.6 9.4
11:00 1022 30.18 851 25.13 -4.5 23.8 54 -12.4 9.6
11:05 1022 30.18 851 25.13 -3.6 25.6 53 -11.9 10.5
11:10 1022 30.18 851 25.13 -3 26.7 50 -12 10.4
11:15 1022 30.18 851 25.13 -3.1 26.5 51 -11.8 10.8
11:20 1022 30.18 851 25.13 -3 26.7 49 -12.2 10.1
11:25 1021 30.15 851 25.13 -2.9 26.9 48 -12.4 9.7
11:30 1021 30.15 851 25.13 -2.8 27 49 -12 10.3
11:35 1021 30.15 851 25.13 -2.5 27.6 47 -12.3 9.9
11:40 1021 30.15 851 25.13 -2.3 27.9 49 -11.7 11
11:45 1021 30.15 851 25.13 -2.2 28.1 46 -12.3 9.9
11:50 1022 30.18 851 25.13 -2.2 28 44 -12.8 8.9
11:55 1022 30.18 851 25.13 -1.6 29.1 43 -12.6 9.3
12:00 1022 30.18 851 25.13 -1.3 29.6 41 -12.9 8.8
12:05 1022 30.18 851 25.13 -1.8 28.7 40 -13.7 7.4
12:10 1021 30.15 851 25.13 -2.4 27.7 43 -13.4 7.8
12:15 1021 30.15 851 25.13 -2.4 27.6 42 -13.8 7.2
12:20 1021 30.15 851 25.13 -2.4 27.6 41 -13.9 6.9
12:25 1021 30.15 851 25.13 -1.9 28.5 39 -14.1 6.5
12:30 1021 30.15 851 25.13 -1.3 29.7 37 -14.1 6.7
12:35 1021 30.15 850 25.1 -1.3 29.7 37 -14.1 6.6
12:40 1021 30.15 850 25.1 -0.7 30.8 37 -13.7 7.4
12:45 1021 30.15 850 25.1 -0.5 31.1 36 -13.9 7
12:50 1021 30.15 850 25.1 -0.7 30.8 37 -13.7 7.3
12:55 1021 30.15 850 25.1 -0.9 30.3 38 -13.5 7.7
13:00 1021 30.15 850 25.1 -1.1 30 35 -14.8 5.4
13:05 1021 30.15 850 25.1 -1.4 29.5 38 -13.9 6.9
13:10 1021 30.15 850 25.1 -0.5 31.1 36 -13.9 6.9
13:15 1021 30.15 850 25.1 -0 32 34 -14.1 6.6
13:20 1021 30.15 850 25.1 0.2 32.4 36 -13 8.6
13:25 1021 30.15 850 25.1 0.1 32.1 36 -13.2 8.3
13:30 1021 30.15 850 25.1 -0 32 38 -12.6 9.4
13:35 1021 30.15 850 25.1 -0.1 31.8 34 -14.3 6.2
13:40 1021 30.15 850 25.1 0.1 32.2 33 -14.4 6.1
13:45 1021 30.15 850 25.1 0.1 32.3 37 -12.9 8.7
13:50 1020 30.12 850 25.1 0 32.1 34 -13.9 7
13:55 1020 30.12 850 25.1 0.5 32.9 34 -13.5 7.7
14:00 1020 30.12 850 25.1 0.3 32.5 35 -13.4 7.9
14:05 1020 30.12 849 25.07 0.5 32.8 34 -13.7 7.4
14:10 1020 30.12 849 25.07 0.3 32.6 38 -12.6 9.4
14:15 1020 30.12 849 25.07 0.4 32.8 35 -13.3 8
14:20 1020 30.12 849 25.07 0.3 32.5 35 -13.5 7.7
14:25 1020 30.12 849 25.07 0.2 32.4 37 -13 8.7
14:30 1020 30.12 849 25.07 0.7 33.3 37 -12.5 9.5
14:35 1020 30.12 849 25.07 1 33.9 34 -13.1 8.4
14:40 1020 30.12 849 25.07 1.4 34.6 35 -12.5 9.4
14:45 1020 30.12 849 25.07 0.7 33.3 35 -13.2 8.3
14:50 1020 30.12 849 25.07 0.1 32.1 36 -13.4 7.8
14:55 1020 30.12 849 25.07 1.2 34.2 34 -13 8.6
15:00 1020 30.12 849 25.07 0.9 33.7 34 -13.1 8.5
15:05 1020 30.12 849 25.07 1.2 34.2 33 -13.4 7.9
15:10 1020 30.12 849 25.07 1.1 33.9 35 -12.9 8.8
15:15 1020 30.12 849 25.07 0.9 33.7 35 -12.9 8.7
15:20 1020 30.12 849 25.07 0.8 33.4 36 -12.8 8.9
15:25 1019 30.09 849 25.07 0.8 33.5 36 -12.8 9
15:30 1019 30.09 849 25.07 1.2 34.1 33 -13.3 8
15:35 1019 30.09 849 25.07 1.1 33.9 34 -13.2 8.3
15:40 1019 30.09 849 25.07 1.1 33.9 34 -13 8.6
15:45 1019 30.09 848 25.04 1.3 34.4 33 -13.3 8
15:50 1019 30.09 848 25.04 1.1 33.9 34 -13 8.5
15:55 1019 30.09 848 25.04 0.8 33.4 37 -12.3 9.8
16:00 1019 30.09 848 25.04 -0.9 30.5 40 -12.7 9.1
16:05 1019 30.09 848 25.04 -1.1 30 41 -12.8 9
16:10 1019 30.09 848 25.04 -1 30.2 39 -13.2 8.2
16:15 1019 30.09 848 25.04 -1 30.3 38 -13.6 7.5
16:20 1019 30.09 848 25.04 -0.7 30.7 37 -13.6 7.5
16:25 1019 30.09 848 25.04 -1.1 30 38 -13.7 7.4
16:30 1019 30.09 848 25.04 -1 30.1 38 -13.6 7.5
16:35 1019 30.09 848 25.04 -0.8 30.5 39 -13.2 8.2
16:40 1019 30.09 848 25.04 -0.8 30.5 38 -13.5 7.6
16:45 1019 30.09 848 25.04 -0.7 30.7 38 -13.4 7.9
16:50 1019 30.09 848 25.04 -0.9 30.4 38 -13.6 7.6
16:55 1019 30.09 848 25.04 -1 30.3 37 -13.9 7
17:00 1019 30.09 848 25.04 -1 30.2 39 -13.3 8
17:05 1019 30.09 848 25.04 -1.2 29.9 38 -13.8 7.1
17:10 1019 30.09 848 25.04 -0.7 30.7 37 -13.8 7.2
17:15 1019 30.09 848 25.04 -0.8 30.6 40 -12.8 8.9
17:20 1019 30.09 848 25.04 -0.8 30.5 38 -13.3 8
17:25 1019 30.09 848 25.04 -1 30.3 38 -13.4 7.8
17:30 1019 30.09 848 25.04 -1 30.3 39 -13.3 8.1
17:35 1019 30.09 848 25.04 -1.3 29.7 40 -13.4 7.9
17:40 1019 30.09 848 25.04 -1 30.2 38 -13.6 7.6
17:45 1019 30.09 848 25.04 -0.7 30.7 37 -13.7 7.4
17:50 1019 30.09 848 25.04 0.1 32.1 36 -13.4 7.8
17:55 1019 30.09 848 25.04 -0.4 31.4 36 -13.8 7.2
18:00 1019 30.09 848 25.04 -0.8 30.5 39 -13.2 8.2
18:05 1019 30.09 848 25.04 -1.1 30 37 -14 6.8
18:10 1019 30.09 848 25.04 -0.9 30.3 38 -13.6 7.5
18:15 1019 30.09 848 25.04 -0.6 30.8 37 -13.6 7.5
18:20 1019 30.09 848 25.04 -0.7 30.8 37 -13.6 7.4
18:25 1019 30.09 848 25.04 -0.8 30.5 37 -13.7 7.4
18:30 1019 30.09 848 25.04 -1.2 29.8 39 -13.6 7.5
18:35 1019 30.09 848 25.04 -1.3 29.6 38 -13.9 6.9
18:40 1019 30.09 848 25.04 -1.6 29.2 40 -13.6 7.6
18:45 1019 30.09 848 25.04 -1.7 28.9 40 -13.8 7.2
18:50 1019 30.09 848 25.04 -1.9 28.5 40 -13.9 6.9
18:55 1019 30.09 848 25.04 -1.9 28.6 39 -14.1 6.6
19:00 1019 30.09 848 25.04 -2.1 28.2 41 -13.7 7.3
19:05 1019 30.09 848 25.04 -2.3 27.8 41 -13.8 7.2
19:10 1019 30.09 848 25.04 -2.4 27.7 42 -13.5 7.7
19:15 1019 30.09 848 25.04 -2.6 27.4 46 -12.7 9.1
19:20 1019 30.09 848 25.04 -3.3 26.1 50 -12.4 9.8
19:25 1019 30.09 848 25.04 -3.7 25.4 52 -12.1 10.2
19:30 1019 30.09 848 25.04 -4.2 24.5 55 -12 10.5
19:35 1019 30.09 848 25.04 -4.5 23.9 56 -11.9 10.5
19:40 1019 30.09 848 25.04 -4.5 23.9 56 -12 10.3
19:45 1019 30.09 848 25.04 -4.6 23.7 58 -11.7 11
19:50 1019 30.09 848 25.04 -4.6 23.7 58 -11.8 10.8
19:55 1019 30.09 848 25.04 -4.3 24.2 57 -11.7 10.9
20:00 1019 30.09 848 25.04 -4.1 24.6 57 -11.4 11.4
20:05 1019 30.09 848 25.04 -4.3 24.3 57 -11.6 11.2
20:10 1019 30.09 848 25.04 -4.1 24.6 56 -11.7 11
20:15 1019 30.09 848 25.04 -4.1 24.6 56 -11.6 11.2
20:20 1019 30.09 848 25.04 -4.2 24.4 56 -11.7 11
20:25 1019 30.09 848 25.04 -4.1 24.6 56 -11.7 10.9
20:30 1019 30.09 848 25.04 -4.2 24.5 56 -11.6 11.1
20:35 1019 30.09 848 25.04 -4.4 24.1 59 -11.2 11.8
20:40 1019 30.09 848 25.04 -4.3 24.2 58 -11.4 11.5
20:45 1019 30.09 848 25.04 -4.3 24.3 60 -10.9 12.4
20:50 1019 30.09 848 25.04 -4.1 24.6 59 -10.9 12.3
20:55 1019 30.09 848 25.04 -4.1 24.6 57 -11.4 11.5
21:00 1019 30.09 848 25.04 -4.2 24.4 58 -11.4 11.6
21:05 1019 30.09 848 25.04 -4.3 24.2 60 -11 12.3
21:10 1019 30.09 848 25.04 -4.4 24.1 59 -11.3 11.7
21:15 1019 30.09 848 25.04 -4.7 23.5 60 -11.4 11.5
21:20 1019 30.09 848 25.04 -4.7 23.5 61 -11.1 12
21:25 1019 30.09 848 25.04 -4.8 23.4 62 -11 12.2
21:30 1019 30.09 848 25.04 -4.9 23.2 60 -11.5 11.3
21:35 1019 30.09 848 25.04 -4.7 23.6 61 -11.2 11.8
21:40 1019 30.09 848 25.04 -4.8 23.4 61 -11.3 11.7
21:45 1019 30.09 848 25.04 -5 23.1 61 -11.3 11.6
21:50 1019 30.09 848 25.04 -4.9 23.1 59 -11.7 10.9
21:55 1019 30.09 848 25.04 -4.7 23.5 60 -11.4 11.5
22:00 1019 30.09 848 25.04 -4.7 23.6 60 -11.4 11.5
22:05 1019 30.09 848 25.04 -4.7 23.6 59 -11.6 11.2
22:10 1019 30.09 848 25.04 -4.5 23.9 58 -11.5 11.3
22:15 1019 30.09 848 25.04 -4.4 24.1 58 -11.5 11.2
22:20 1019 30.09 848 25.04 -4.2 24.5 57 -11.4 11.4
22:25 1019 30.09 848 25.04 -4.4 24.1 59 -11.3 11.7
22:30 1019 30.09 848 25.04 -4.5 23.8 59 -11.4 11.5
22:35 1018 30.06 848 25.04 -4.4 24.1 58 -11.4 11.4
22:40 1018 30.06 848 25.04 -4.4 24 59 -11.3 11.6
22:45 1019 30.09 848 25.04 -4.8 23.4 61 -11.3 11.7
22:50 1019 30.09 848 25.04 -5.1 22.9 61 -11.4 11.5
22:55 1019 30.09 848 25.04 -4.7 23.5 59 -11.5 11.3
23:00 1019 30.09 848 25.04 -4.5 23.9 58 -11.5 11.2
23:05 1019 30.09 848 25.04 -4.4 24.1 57 -11.7 11
23:10 1019 30.09 848 25.04 -4.1 24.6 56 -11.7 11
23:15 1019 30.09 848 25.04 -3.9 24.9 58 -11 12.2
23:20 1019 30.09 848 25.04 -4.3 24.3 58 -11.3 11.7
23:25 1019 30.09 848 25.04 -4.9 23.1 61 -11.3 11.6
23:30 1019 30.09 848 25.04 -5.2 22.7 62 -11.4 11.4
23:35 1019 30.09 848 25.04 -5.4 22.2 62 -11.5 11.3
23:40 1019 30.09 848 25.04 -5.6 21.9 62 -11.8 10.7
23:45 1019 30.09 848 25.04 -5.6 22 62 -11.7 10.9
23:50 1019 30.09 848 25.04 -5.6 22 62 -11.7 11
23:55 1018 30.06 848 25.04 -5.5 22.1 61 -11.8 10.7
24:00 1018 30.06 848 25.04 -5.4 22.3 61 -11.8 10.7